sensor_id;sensor_type;location;lat;lon;timestamp;P1;durP1;ratioP1;P2;durP2;ratioP2
54143;SDS011;40050;47.324;18.792;2022-07-29T00:00:09;4.63;;;4.19;;
54143;SDS011;40050;47.324;18.792;2022-07-29T00:02:10;6.80;;;4.29;;
54143;SDS011;40050;47.324;18.792;2022-07-29T00:04:11;6.50;;;4.19;;
54143;SDS011;40050;47.324;18.792;2022-07-29T00:06:12;8.47;;;4.29;;
54143;SDS011;40050;47.324;18.792;2022-07-29T00:08:13;9.95;;;4.29;;
54143;SDS011;40050;47.324;18.792;2022-07-29T00:10:14;7.19;;;4.19;;
54143;SDS011;40050;47.324;18.792;2022-07-29T00:12:15;5.81;;;4.19;;
54143;SDS011;40050;47.324;18.792;2022-07-29T00:14:17;5.12;;;3.89;;
54143;SDS011;40050;47.324;18.792;2022-07-29T00:16:17;5.41;;;4.09;;
54143;SDS011;40050;47.324;18.792;2022-07-29T00:18:19;6.30;;;4.19;;
54143;SDS011;40050;47.324;18.792;2022-07-29T00:20:34;6.59;;;4.29;;
54143;SDS011;40050;47.324;18.792;2022-07-29T00:22:21;4.82;;;4.19;;
54143;SDS011;40050;47.324;18.792;2022-07-29T00:24:22;5.51;;;4.09;;
54143;SDS011;40050;47.324;18.792;2022-07-29T00:26:29;5.71;;;4.09;;
54143;SDS011;40050;47.324;18.792;2022-07-29T00:28:24;6.69;;;3.89;;
54143;SDS011;40050;47.324;18.792;2022-07-29T00:30:31;6.39;;;4.19;;
54143;SDS011;40050;47.324;18.792;2022-07-29T00:32:33;4.82;;;3.89;;
54143;SDS011;40050;47.324;18.792;2022-07-29T00:34:34;3.74;;;3.39;;
54143;SDS011;40050;47.324;18.792;2022-07-29T00:36:35;6.10;;;3.69;;
54143;SDS011;40050;47.324;18.792;2022-07-29T00:38:36;5.61;;;3.69;;
54143;SDS011;40050;47.324;18.792;2022-07-29T00:40:38;6.60;;;3.79;;
54143;SDS011;40050;47.324;18.792;2022-07-29T00:42:46;6.89;;;3.89;;
54143;SDS011;40050;47.324;18.792;2022-07-29T00:44:41;6.21;;;3.70;;
54143;SDS011;40050;47.324;18.792;2022-07-29T00:46:41;4.93;;;3.70;;
54143;SDS011;40050;47.324;18.792;2022-07-29T00:48:42;7.10;;;3.90;;
54143;SDS011;40050;47.324;18.792;2022-07-29T00:50:43;6.80;;;3.69;;
54143;SDS011;40050;47.324;18.792;2022-07-29T00:52:44;7.59;;;3.79;;
54143;SDS011;40050;47.324;18.792;2022-07-29T00:54:45;4.63;;;3.79;;
54143;SDS011;40050;47.324;18.792;2022-07-29T00:56:47;7.49;;;3.89;;
54143;SDS011;40050;47.324;18.792;2022-07-29T00:58:48;5.32;;;4.09;;
54143;SDS011;40050;47.324;18.792;2022-07-29T01:00:51;6.90;;;3.90;;
54143;SDS011;40050;47.324;18.792;2022-07-29T01:02:52;6.12;;;3.50;;
54143;SDS011;40050;47.324;18.792;2022-07-29T01:04:53;4.73;;;3.50;;
54143;SDS011;40050;47.324;18.792;2022-07-29T01:06:55;6.61;;;3.40;;
54143;SDS011;40050;47.324;18.792;2022-07-29T01:08:56;5.72;;;4.00;;
54143;SDS011;40050;47.324;18.792;2022-07-29T01:10:59;6.22;;;4.10;;
54143;SDS011;40050;47.324;18.792;2022-07-29T01:13:01;9.66;;;4.19;;
54143;SDS011;40050;47.324;18.792;2022-07-29T01:15:03;6.41;;;4.29;;
54143;SDS011;40050;47.324;18.792;2022-07-29T01:21:44;6.12;;;4.00;;
54143;SDS011;40050;47.324;18.792;2022-07-29T01:28:35;5.62;;;4.09;;
54143;SDS011;40050;47.324;18.792;2022-07-29T01:30:27;5.52;;;4.29;;
54143;SDS011;40050;47.324;18.792;2022-07-29T01:32:33;6.11;;;4.19;;
54143;SDS011;40050;47.324;18.792;2022-07-29T01:34:44;6.11;;;4.19;;
54143;SDS011;40050;47.324;18.792;2022-07-29T01:36:47;5.03;;;3.99;;
54143;SDS011;40050;47.324;18.792;2022-07-29T01:40:58;6.80;;;4.59;;
54143;SDS011;40050;47.324;18.792;2022-07-29T01:43:17;5.13;;;3.99;;
54143;SDS011;40050;47.324;18.792;2022-07-29T01:45:48;6.21;;;3.79;;
54143;SDS011;40050;47.324;18.792;2022-07-29T01:47:26;5.62;;;4.29;;
54143;SDS011;40050;47.324;18.792;2022-07-29T01:49:34;5.32;;;4.09;;
54143;SDS011;40050;47.324;18.792;2022-07-29T01:51:53;6.51;;;4.19;;
54143;SDS011;40050;47.324;18.792;2022-07-29T01:55:47;7.40;;;4.39;;
54143;SDS011;40050;47.324;18.792;2022-07-29T01:57:50;5.62;;;4.29;;
54143;SDS011;40050;47.324;18.792;2022-07-29T01:59:51;4.43;;;3.99;;
54143;SDS011;40050;47.324;18.792;2022-07-29T02:01:56;5.82;;;4.39;;
54143;SDS011;40050;47.324;18.792;2022-07-29T02:03:57;4.83;;;4.09;;
54143;SDS011;40050;47.324;18.792;2022-07-29T02:05:59;4.93;;;4.19;;
54143;SDS011;40050;47.324;18.792;2022-07-29T02:08:02;5.32;;;4.19;;
54143;SDS011;40050;47.324;18.792;2022-07-29T02:10:06;5.22;;;4.19;;
54143;SDS011;40050;47.324;18.792;2022-07-29T02:12:08;5.32;;;3.80;;
54143;SDS011;40050;47.324;18.792;2022-07-29T02:14:09;7.69;;;4.29;;
54143;SDS011;40050;47.324;18.792;2022-07-29T02:16:12;8.67;;;3.99;;
54143;SDS011;40050;47.324;18.792;2022-07-29T02:18:17;5.42;;;4.39;;
54143;SDS011;40050;47.324;18.792;2022-07-29T02:20:18;6.01;;;4.09;;
54143;SDS011;40050;47.324;18.792;2022-07-29T02:22:22;5.72;;;4.09;;
54143;SDS011;40050;47.324;18.792;2022-07-29T02:24:24;4.83;;;4.39;;
54143;SDS011;40050;47.324;18.792;2022-07-29T02:26:29;6.31;;;4.19;;
54143;SDS011;40050;47.324;18.792;2022-07-29T02:28:31;5.12;;;4.19;;
54143;SDS011;40050;47.324;18.792;2022-07-29T02:30:33;5.32;;;4.29;;
54143;SDS011;40050;47.324;18.792;2022-07-29T02:32:34;6.01;;;4.09;;
54143;SDS011;40050;47.324;18.792;2022-07-29T02:34:37;4.73;;;3.99;;
54143;SDS011;40050;47.324;18.792;2022-07-29T02:36:39;5.71;;;4.29;;
54143;SDS011;40050;47.324;18.792;2022-07-29T02:38:44;4.73;;;4.19;;
54143;SDS011;40050;47.324;18.792;2022-07-29T02:40:46;5.91;;;4.09;;
54143;SDS011;40050;47.324;18.792;2022-07-29T02:42:48;5.22;;;4.19;;
54143;SDS011;40050;47.324;18.792;2022-07-29T02:44:51;5.02;;;4.09;;
54143;SDS011;40050;47.324;18.792;2022-07-29T02:49:18;6.20;;;4.39;;
54143;SDS011;40050;47.324;18.792;2022-07-29T02:51:17;6.89;;;4.09;;
54143;SDS011;40050;47.324;18.792;2022-07-29T02:53:16;5.12;;;4.19;;
54143;SDS011;40050;47.324;18.792;2022-07-29T02:55:34;5.61;;;4.19;;
54143;SDS011;40050;47.324;18.792;2022-07-29T02:57:44;6.30;;;4.29;;
54143;SDS011;40050;47.324;18.792;2022-07-29T02:59:34;4.43;;;3.99;;
54143;SDS011;40050;47.324;18.792;2022-07-29T03:01:40;5.80;;;4.49;;
54143;SDS011;40050;47.324;18.792;2022-07-29T03:03:45;6.19;;;4.39;;
54143;SDS011;40050;47.324;18.792;2022-07-29T03:05:47;6.49;;;4.79;;
54143;SDS011;40050;47.324;18.792;2022-07-29T03:07:57;5.90;;;4.29;;
54143;SDS011;40050;47.324;18.792;2022-07-29T03:09:53;7.37;;;4.49;;
54143;SDS011;40050;47.324;18.792;2022-07-29T03:11:54;5.80;;;4.59;;
54143;SDS011;40050;47.324;18.792;2022-07-29T03:13:55;5.31;;;4.09;;
54143;SDS011;40050;47.324;18.792;2022-07-29T03:15:57;6.19;;;4.69;;
54143;SDS011;40050;47.324;18.792;2022-07-29T03:17:58;5.99;;;4.69;;
54143;SDS011;40050;47.324;18.792;2022-07-29T03:20:01;8.65;;;4.89;;
54143;SDS011;40050;47.324;18.792;2022-07-29T03:22:01;7.76;;;4.99;;
54143;SDS011;40050;47.324;18.792;2022-07-29T03:24:03;6.39;;;4.89;;
54143;SDS011;40050;47.324;18.792;2022-07-29T03:26:04;6.58;;;4.49;;
54143;SDS011;40050;47.324;18.792;2022-07-29T03:28:05;5.11;;;4.59;;
54143;SDS011;40050;47.324;18.792;2022-07-29T03:30:06;7.27;;;4.89;;
54143;SDS011;40050;47.324;18.792;2022-07-29T03:32:07;6.58;;;4.89;;
54143;SDS011;40050;47.324;18.792;2022-07-29T03:34:08;6.09;;;4.79;;
54143;SDS011;40050;47.324;18.792;2022-07-29T03:36:10;6.38;;;4.69;;
54143;SDS011;40050;47.324;18.792;2022-07-29T03:38:11;6.48;;;4.79;;
54143;SDS011;40050;47.324;18.792;2022-07-29T03:40:13;6.48;;;4.99;;
54143;SDS011;40050;47.324;18.792;2022-07-29T03:42:15;8.15;;;4.99;;
54143;SDS011;40050;47.324;18.792;2022-07-29T03:44:17;6.58;;;4.89;;
54143;SDS011;40050;47.324;18.792;2022-07-29T03:46:21;5.40;;;4.69;;
54143;SDS011;40050;47.324;18.792;2022-07-29T03:48:24;6.67;;;4.89;;
54143;SDS011;40050;47.324;18.792;2022-07-29T03:50:30;8.34;;;5.19;;
54143;SDS011;40050;47.324;18.792;2022-07-29T03:52:32;5.98;;;4.99;;
54143;SDS011;40050;47.324;18.792;2022-07-29T03:54:33;5.59;;;5.09;;
54143;SDS011;40050;47.324;18.792;2022-07-29T03:56:42;8.73;;;4.99;;
54143;SDS011;40050;47.324;18.792;2022-07-29T03:58:38;7.26;;;5.19;;
54143;SDS011;40050;47.324;18.792;2022-07-29T04:00:40;6.08;;;4.99;;
54143;SDS011;40050;47.324;18.792;2022-07-29T04:02:42;8.14;;;5.09;;
54143;SDS011;40050;47.324;18.792;2022-07-29T04:04:43;8.53;;;5.19;;
54143;SDS011;40050;47.324;18.792;2022-07-29T04:06:44;8.64;;;5.49;;
54143;SDS011;40050;47.324;18.792;2022-07-29T04:08:45;7.06;;;5.29;;
54143;SDS011;40050;47.324;18.792;2022-07-29T04:10:47;6.08;;;4.99;;
54143;SDS011;40050;47.324;18.792;2022-07-29T04:12:48;12.16;;;5.69;;
54143;SDS011;40050;47.324;18.792;2022-07-29T04:14:49;9.42;;;5.19;;
54143;SDS011;40050;47.324;18.792;2022-07-29T04:16:50;8.14;;;5.09;;
54143;SDS011;40050;47.324;18.792;2022-07-29T04:18:52;9.31;;;5.29;;
54143;SDS011;40050;47.324;18.792;2022-07-29T04:20:53;8.63;;;5.49;;
54143;SDS011;40050;47.324;18.792;2022-07-29T04:22:54;10.10;;;5.29;;
54143;SDS011;40050;47.324;18.792;2022-07-29T04:24:55;9.61;;;5.49;;
54143;SDS011;40050;47.324;18.792;2022-07-29T04:26:56;9.31;;;5.29;;
54143;SDS011;40050;47.324;18.792;2022-07-29T04:28:57;7.06;;;5.19;;
54143;SDS011;40050;47.324;18.792;2022-07-29T04:30:59;7.65;;;5.19;;
54143;SDS011;40050;47.324;18.792;2022-07-29T04:33:01;7.16;;;5.19;;
54143;SDS011;40050;47.324;18.792;2022-07-29T04:35:01;6.86;;;5.29;;
54143;SDS011;40050;47.324;18.792;2022-07-29T04:37:02;7.15;;;5.29;;
54143;SDS011;40050;47.324;18.792;2022-07-29T04:39:04;10.00;;;5.59;;
54143;SDS011;40050;47.324;18.792;2022-07-29T04:41:05;9.60;;;5.19;;
54143;SDS011;40050;47.324;18.792;2022-07-29T04:43:06;7.65;;;5.09;;
54143;SDS011;40050;47.324;18.792;2022-07-29T04:45:07;7.45;;;5.69;;
54143;SDS011;40050;47.324;18.792;2022-07-29T04:47:08;8.43;;;5.49;;
54143;SDS011;40050;47.324;18.792;2022-07-29T04:49:09;10.19;;;5.69;;
54143;SDS011;40050;47.324;18.792;2022-07-29T04:51:11;10.58;;;5.69;;
54143;SDS011;40050;47.324;18.792;2022-07-29T04:53:12;5.49;;;4.99;;
54143;SDS011;40050;47.324;18.792;2022-07-29T04:55:13;9.33;;;5.49;;
54143;SDS011;40050;47.324;18.792;2022-07-29T04:57:14;7.26;;;5.19;;
54143;SDS011;40050;47.324;18.792;2022-07-29T04:59:15;6.29;;;5.19;;
54143;SDS011;40050;47.324;18.792;2022-07-29T05:01:17;13.47;;;5.29;;
54143;SDS011;40050;47.324;18.792;2022-07-29T05:03:18;9.15;;;5.49;;
54143;SDS011;40050;47.324;18.792;2022-07-29T05:05:19;9.65;;;5.09;;
54143;SDS011;40050;47.324;18.792;2022-07-29T05:07:20;8.86;;;4.99;;
54143;SDS011;40050;47.324;18.792;2022-07-29T05:09:21;7.28;;;4.69;;
54143;SDS011;40050;47.324;18.792;2022-07-29T05:11:22;7.88;;;4.99;;
54143;SDS011;40050;47.324;18.792;2022-07-29T05:13:23;10.65;;;5.09;;
54143;SDS011;40050;47.324;18.792;2022-07-29T05:15:24;10.06;;;4.99;;
54143;SDS011;40050;47.324;18.792;2022-07-29T05:17:25;8.49;;;4.79;;
54143;SDS011;40050;47.324;18.792;2022-07-29T05:19:26;8.69;;;4.89;;
54143;SDS011;40050;47.324;18.792;2022-07-29T05:21:27;7.70;;;4.80;;
54143;SDS011;40050;47.324;18.792;2022-07-29T05:23:29;7.80;;;4.89;;
54143;SDS011;40050;47.324;18.792;2022-07-29T05:25:30;8.01;;;5.00;;
54143;SDS011;40050;47.324;18.792;2022-07-29T05:27:31;7.12;;;4.90;;
54143;SDS011;40050;47.324;18.792;2022-07-29T05:29:32;5.14;;;4.50;;
54143;SDS011;40050;47.324;18.792;2022-07-29T05:31:33;7.82;;;5.10;;
54143;SDS011;40050;47.324;18.792;2022-07-29T05:33:34;7.62;;;4.80;;
54143;SDS011;40050;47.324;18.792;2022-07-29T05:35:36;6.14;;;5.00;;
54143;SDS011;40050;47.324;18.792;2022-07-29T05:37:37;8.42;;;5.00;;
54143;SDS011;40050;47.324;18.792;2022-07-29T05:39:38;6.83;;;4.50;;
54143;SDS011;40050;47.324;18.792;2022-07-29T05:41:39;10.00;;;4.70;;
54143;SDS011;40050;47.324;18.792;2022-07-29T05:43:40;6.74;;;4.40;;
54143;SDS011;40050;47.324;18.792;2022-07-29T05:45:41;7.33;;;4.40;;
54143;SDS011;40050;47.324;18.792;2022-07-29T05:47:43;7.24;;;4.50;;
54143;SDS011;40050;47.324;18.792;2022-07-29T05:49:44;9.91;;;4.40;;
54143;SDS011;40050;47.324;18.792;2022-07-29T05:51:45;7.74;;;4.30;;
54143;SDS011;40050;47.324;18.792;2022-07-29T05:53:46;6.75;;;4.40;;
54143;SDS011;40050;47.324;18.792;2022-07-29T05:55:47;6.15;;;4.30;;
54143;SDS011;40050;47.324;18.792;2022-07-29T05:57:51;5.95;;;4.40;;
54143;SDS011;40050;47.324;18.792;2022-07-29T05:59:51;5.35;;;4.10;;
54143;SDS011;40050;47.324;18.792;2022-07-29T06:01:52;8.63;;;4.30;;
54143;SDS011;40050;47.324;18.792;2022-07-29T06:03:54;7.44;;;4.70;;
54143;SDS011;40050;47.324;18.792;2022-07-29T06:05:54;6.75;;;4.20;;
54143;SDS011;40050;47.324;18.792;2022-07-29T06:07:56;8.34;;;4.60;;
54143;SDS011;40050;47.324;18.792;2022-07-29T06:09:57;7.34;;;4.50;;
54143;SDS011;40050;47.324;18.792;2022-07-29T06:11:58;5.56;;;4.60;;
54143;SDS011;40050;47.324;18.792;2022-07-29T06:13:59;9.43;;;4.70;;
54143;SDS011;40050;47.324;18.792;2022-07-29T06:16:01;5.96;;;4.40;;
54143;SDS011;40050;47.324;18.792;2022-07-29T06:18:02;9.83;;;5.20;;
54143;SDS011;40050;47.324;18.792;2022-07-29T06:20:05;5.96;;;4.80;;
54143;SDS011;40050;47.324;18.792;2022-07-29T06:22:06;8.15;;;4.80;;
54143;SDS011;40050;47.324;18.792;2022-07-29T06:24:10;6.95;;;4.80;;
54143;SDS011;40050;47.324;18.792;2022-07-29T06:26:11;6.16;;;4.30;;
54143;SDS011;40050;47.324;18.792;2022-07-29T06:28:12;8.55;;;4.50;;
54143;SDS011;40050;47.324;18.792;2022-07-29T06:30:14;4.67;;;4.20;;
54143;SDS011;40050;47.324;18.792;2022-07-29T06:32:15;5.96;;;4.40;;
54143;SDS011;40050;47.324;18.792;2022-07-29T06:34:16;6.36;;;4.40;;
54143;SDS011;40050;47.324;18.792;2022-07-29T06:36:17;8.25;;;4.50;;
54143;SDS011;40050;47.324;18.792;2022-07-29T06:38:18;5.87;;;4.30;;
54143;SDS011;40050;47.324;18.792;2022-07-29T06:40:19;5.77;;;4.10;;
54143;SDS011;40050;47.324;18.792;2022-07-29T06:42:21;7.66;;;4.40;;
54143;SDS011;40050;47.324;18.792;2022-07-29T06:44:22;7.66;;;4.50;;
54143;SDS011;40050;47.324;18.792;2022-07-29T06:46:23;7.46;;;4.00;;
54143;SDS011;40050;47.324;18.792;2022-07-29T06:48:24;6.27;;;4.40;;
54143;SDS011;40050;47.324;18.792;2022-07-29T06:50:25;10.45;;;4.80;;
54143;SDS011;40050;47.324;18.792;2022-07-29T06:52:27;8.76;;;4.90;;
54143;SDS011;40050;47.324;18.792;2022-07-29T06:54:28;12.65;;;4.80;;
54143;SDS011;40050;47.324;18.792;2022-07-29T06:56:30;9.17;;;5.10;;
54143;SDS011;40050;47.324;18.792;2022-07-29T06:58:31;7.17;;;4.40;;
54143;SDS011;40050;47.324;18.792;2022-07-29T07:00:32;5.88;;;4.60;;
54143;SDS011;40050;47.324;18.792;2022-07-29T07:02:33;7.27;;;4.60;;
54143;SDS011;40050;47.324;18.792;2022-07-29T07:04:35;10.26;;;4.70;;
54143;SDS011;40050;47.324;18.792;2022-07-29T07:06:36;9.57;;;4.80;;
54143;SDS011;40050;47.324;18.792;2022-07-29T07:08:36;8.17;;;4.40;;
54143;SDS011;40050;47.324;18.792;2022-07-29T07:10:38;6.58;;;4.60;;
54143;SDS011;40050;47.324;18.792;2022-07-29T07:12:39;9.07;;;4.70;;
54143;SDS011;40050;47.324;18.792;2022-07-29T07:14:40;7.38;;;4.60;;
54143;SDS011;40050;47.324;18.792;2022-07-29T07:16:41;11.46;;;5.10;;
54143;SDS011;40050;47.324;18.792;2022-07-29T07:18:42;5.78;;;4.40;;
54143;SDS011;40050;47.324;18.792;2022-07-29T07:20:44;6.58;;;4.70;;
54143;SDS011;40050;47.324;18.792;2022-07-29T07:22:45;6.58;;;4.50;;
54143;SDS011;40050;47.324;18.792;2022-07-29T07:24:46;9.07;;;4.60;;
54143;SDS011;40050;47.324;18.792;2022-07-29T07:26:47;8.87;;;4.80;;
54143;SDS011;40050;47.324;18.792;2022-07-29T07:28:48;5.79;;;4.60;;
54143;SDS011;40050;47.324;18.792;2022-07-29T07:30:50;6.48;;;4.00;;
54143;SDS011;40050;47.324;18.792;2022-07-29T07:32:51;8.18;;;4.60;;
54143;SDS011;40050;47.324;18.792;2022-07-29T07:34:52;6.68;;;4.50;;
54143;SDS011;40050;47.324;18.792;2022-07-29T07:36:53;5.79;;;4.40;;
54143;SDS011;40050;47.324;18.792;2022-07-29T07:38:55;6.29;;;4.40;;
54143;SDS011;40050;47.324;18.792;2022-07-29T07:40:56;6.39;;;4.60;;
54143;SDS011;40050;47.324;18.792;2022-07-29T07:42:56;7.98;;;4.70;;
54143;SDS011;40050;47.324;18.792;2022-07-29T07:44:58;7.88;;;4.70;;
54143;SDS011;40050;47.324;18.792;2022-07-29T07:46:59;11.18;;;4.60;;
54143;SDS011;40050;47.324;18.792;2022-07-29T07:49:00;6.39;;;4.00;;
54143;SDS011;40050;47.324;18.792;2022-07-29T07:51:01;7.58;;;4.70;;
54143;SDS011;40050;47.324;18.792;2022-07-29T07:53:02;7.98;;;4.30;;
54143;SDS011;40050;47.324;18.792;2022-07-29T07:55:03;7.29;;;4.60;;
54143;SDS011;40050;47.324;18.792;2022-07-29T07:57:04;6.59;;;4.50;;
54143;SDS011;40050;47.324;18.792;2022-07-29T07:59:05;7.29;;;4.30;;
54143;SDS011;40050;47.324;18.792;2022-07-29T08:01:07;6.79;;;4.20;;
54143;SDS011;40050;47.324;18.792;2022-07-29T08:03:08;5.79;;;4.40;;
54143;SDS011;40050;47.324;18.792;2022-07-29T08:05:11;6.29;;;4.40;;
54143;SDS011;40050;47.324;18.792;2022-07-29T08:07:11;4.89;;;4.40;;
54143;SDS011;40050;47.324;18.792;2022-07-29T08:09:13;8.39;;;4.40;;
54143;SDS011;40050;47.324;18.792;2022-07-29T08:11:14;9.49;;;4.30;;
54143;SDS011;40050;47.324;18.792;2022-07-29T08:13:15;8.89;;;4.30;;
54143;SDS011;40050;47.324;18.792;2022-07-29T08:15:18;6.69;;;4.50;;
54143;SDS011;40050;47.324;18.792;2022-07-29T08:19:20;7.89;;;4.10;;
54143;SDS011;40050;47.324;18.792;2022-07-29T08:21:22;5.79;;;3.80;;
54143;SDS011;40050;47.324;18.792;2022-07-29T08:23:23;8.79;;;4.30;;
54143;SDS011;40050;47.324;18.792;2022-07-29T08:25:25;7.09;;;4.20;;
54143;SDS011;40050;47.324;18.792;2022-07-29T08:27:26;7.39;;;4.60;;
54143;SDS011;40050;47.324;18.792;2022-07-29T08:29:27;6.39;;;4.00;;
54143;SDS011;40050;47.324;18.792;2022-07-29T08:31:29;5.29;;;4.00;;
54143;SDS011;40050;47.324;18.792;2022-07-29T08:33:30;6.09;;;3.80;;
54143;SDS011;40050;47.324;18.792;2022-07-29T08:35:31;6.49;;;4.10;;
54143;SDS011;40050;47.324;18.792;2022-07-29T08:37:32;7.89;;;4.20;;
54143;SDS011;40050;47.324;18.792;2022-07-29T08:39:34;7.39;;;3.70;;
54143;SDS011;40050;47.324;18.792;2022-07-29T08:41:35;8.49;;;3.90;;
54143;SDS011;40050;47.324;18.792;2022-07-29T08:43:39;6.29;;;3.70;;
54143;SDS011;40050;47.324;18.792;2022-07-29T08:45:47;11.39;;;4.10;;
54143;SDS011;40050;47.324;18.792;2022-07-29T08:47:45;9.39;;;3.80;;
54143;SDS011;40050;47.324;18.792;2022-07-29T08:49:48;5.90;;;4.00;;
54143;SDS011;40050;47.324;18.792;2022-07-29T08:51:54;5.60;;;3.50;;
54143;SDS011;40050;47.324;18.792;2022-07-29T08:53:52;8.69;;;3.50;;
54143;SDS011;40050;47.324;18.792;2022-07-29T08:55:54;7.79;;;3.50;;
54143;SDS011;40050;47.324;18.792;2022-07-29T08:57:56;7.49;;;3.50;;
54143;SDS011;40050;47.324;18.792;2022-07-29T09:00:16;10.89;;;4.10;;
54143;SDS011;40050;47.324;18.792;2022-07-29T09:05:18;7.60;;;4.50;;
54143;SDS011;40050;47.324;18.792;2022-07-29T09:07:19;6.80;;;4.10;;
54143;SDS011;40050;47.324;18.792;2022-07-29T09:09:36;5.40;;;3.60;;
54143;SDS011;40050;47.324;18.792;2022-07-29T09:12:00;5.30;;;3.70;;
54143;SDS011;40050;47.324;18.792;2022-07-29T09:16:17;7.60;;;3.70;;
54143;SDS011;40050;47.324;18.792;2022-07-29T09:26:42;8.00;;;3.70;;
54143;SDS011;40050;47.324;18.792;2022-07-29T09:28:42;7.90;;;3.30;;
54143;SDS011;40050;47.324;18.792;2022-07-29T09:30:53;6.20;;;3.30;;
54143;SDS011;40050;47.324;18.792;2022-07-29T09:32:55;4.40;;;2.90;;
54143;SDS011;40050;47.324;18.792;2022-07-29T09:35:16;4.50;;;3.00;;
54143;SDS011;40050;47.324;18.792;2022-07-29T09:37:26;4.40;;;3.00;;
54143;SDS011;40050;47.324;18.792;2022-07-29T09:39:38;7.10;;;3.10;;
54143;SDS011;40050;47.324;18.792;2022-07-29T09:41:49;4.70;;;2.90;;
54143;SDS011;40050;47.324;18.792;2022-07-29T09:44:05;6.00;;;2.90;;
54143;SDS011;40050;47.324;18.792;2022-07-29T09:46:10;5.80;;;2.80;;
54143;SDS011;40050;47.324;18.792;2022-07-29T09:58:17;4.70;;;3.20;;
54143;SDS011;40050;47.324;18.792;2022-07-29T10:00:00;5.80;;;2.80;;
54143;SDS011;40050;47.324;18.792;2022-07-29T10:02:00;8.40;;;3.10;;
54143;SDS011;40050;47.324;18.792;2022-07-29T10:04:02;5.20;;;3.10;;
54143;SDS011;40050;47.324;18.792;2022-07-29T10:06:13;4.20;;;2.80;;
54143;SDS011;40050;47.324;18.792;2022-07-29T10:08:24;4.80;;;2.90;;
54143;SDS011;40050;47.324;18.792;2022-07-29T10:10:29;4.90;;;2.90;;
54143;SDS011;40050;47.324;18.792;2022-07-29T10:12:51;6.80;;;2.80;;
54143;SDS011;40050;47.324;18.792;2022-07-29T10:14:49;4.20;;;2.70;;
54143;SDS011;40050;47.324;18.792;2022-07-29T10:16:51;4.00;;;2.80;;
54143;SDS011;40050;47.324;18.792;2022-07-29T10:18:55;6.40;;;2.80;;
54143;SDS011;40050;47.324;18.792;2022-07-29T10:21:00;8.20;;;2.80;;
54143;SDS011;40050;47.324;18.792;2022-07-29T10:23:04;4.10;;;2.50;;
54143;SDS011;40050;47.324;18.792;2022-07-29T10:25:03;3.20;;;2.70;;
54143;SDS011;40050;47.324;18.792;2022-07-29T10:27:11;5.60;;;2.40;;
54143;SDS011;40050;47.324;18.792;2022-07-29T10:29:19;3.00;;;2.30;;
54143;SDS011;40050;47.324;18.792;2022-07-29T10:31:24;4.00;;;2.40;;
54143;SDS011;40050;47.324;18.792;2022-07-29T10:34:29;5.00;;;2.50;;
54143;SDS011;40050;47.324;18.792;2022-07-29T10:35:44;7.40;;;2.60;;
54143;SDS011;40050;47.324;18.792;2022-07-29T10:38:22;4.80;;;2.70;;
54143;SDS011;40050;47.324;18.792;2022-07-29T10:40:10;3.30;;;2.00;;
54143;SDS011;40050;47.324;18.792;2022-07-29T10:42:27;4.80;;;2.60;;
54143;SDS011;40050;47.324;18.792;2022-07-29T10:44:40;5.50;;;2.60;;
54143;SDS011;40050;47.324;18.792;2022-07-29T10:46:41;4.10;;;2.50;;
54143;SDS011;40050;47.324;18.792;2022-07-29T10:50:56;8.20;;;2.60;;
54143;SDS011;40050;47.324;18.792;2022-07-29T10:52:53;4.70;;;2.40;;
54143;SDS011;40050;47.324;18.792;2022-07-29T10:54:51;4.30;;;2.20;;
54143;SDS011;40050;47.324;18.792;2022-07-29T10:57:15;3.00;;;2.10;;
54143;SDS011;40050;47.324;18.792;2022-07-29T10:59:22;6.10;;;2.20;;
54143;SDS011;40050;47.324;18.792;2022-07-29T11:01:03;3.80;;;2.40;;
54143;SDS011;40050;47.324;18.792;2022-07-29T11:03:47;6.60;;;2.50;;
54143;SDS011;40050;47.324;18.792;2022-07-29T11:05:27;2.90;;;2.20;;
54143;SDS011;40050;47.324;18.792;2022-07-29T11:12:02;4.10;;;2.10;;
54143;SDS011;40050;47.324;18.792;2022-07-29T11:14:54;5.20;;;2.80;;
54143;SDS011;40050;47.324;18.792;2022-07-29T11:16:31;8.50;;;2.70;;
54143;SDS011;40050;47.324;18.792;2022-07-29T11:19:18;5.30;;;2.60;;
54143;SDS011;40050;47.324;18.792;2022-07-29T11:20:54;7.40;;;2.60;;
54143;SDS011;40050;47.324;18.792;2022-07-29T11:23:19;4.20;;;2.60;;
54143;SDS011;40050;47.324;18.792;2022-07-29T11:25:17;6.20;;;2.60;;
54143;SDS011;40050;47.324;18.792;2022-07-29T11:27:14;5.70;;;2.50;;
54143;SDS011;40050;47.324;18.792;2022-07-29T11:29:39;5.50;;;2.70;;
54143;SDS011;40050;47.324;18.792;2022-07-29T11:31:45;5.30;;;2.50;;
54143;SDS011;40050;47.324;18.792;2022-07-29T11:33:54;7.00;;;3.00;;
54143;SDS011;40050;47.324;18.792;2022-07-29T11:36:08;4.90;;;2.60;;
54143;SDS011;40050;47.324;18.792;2022-07-29T11:38:23;3.80;;;2.30;;
54143;SDS011;40050;47.324;18.792;2022-07-29T11:40:09;5.00;;;2.50;;
54143;SDS011;40050;47.324;18.792;2022-07-29T11:44:53;4.90;;;2.60;;
54143;SDS011;40050;47.324;18.792;2022-07-29T11:46:49;3.00;;;2.40;;
54143;SDS011;40050;47.324;18.792;2022-07-29T11:48:29;5.60;;;2.70;;
54143;SDS011;40050;47.324;18.792;2022-07-29T11:50:37;5.10;;;2.70;;
54143;SDS011;40050;47.324;18.792;2022-07-29T11:52:36;6.40;;;2.90;;
54143;SDS011;40050;47.324;18.792;2022-07-29T11:54:35;5.60;;;2.90;;
54143;SDS011;40050;47.324;18.792;2022-07-29T11:56:39;4.50;;;2.80;;
54143;SDS011;40050;47.324;18.792;2022-07-29T11:58:40;5.50;;;2.50;;
54143;SDS011;40050;47.324;18.792;2022-07-29T12:00:45;4.20;;;2.60;;
54143;SDS011;40050;47.324;18.792;2022-07-29T12:02:45;4.60;;;2.60;;
54143;SDS011;40050;47.324;18.792;2022-07-29T12:04:50;6.50;;;2.60;;
54143;SDS011;40050;47.324;18.792;2022-07-29T12:06:57;6.00;;;2.70;;
54143;SDS011;40050;47.324;18.792;2022-07-29T12:08:50;4.90;;;2.80;;
54143;SDS011;40050;47.324;18.792;2022-07-29T12:10:52;8.30;;;2.90;;
54143;SDS011;40050;47.324;18.792;2022-07-29T12:12:56;4.80;;;2.70;;
54143;SDS011;40050;47.324;18.792;2022-07-29T12:15:10;5.10;;;2.80;;
54143;SDS011;40050;47.324;18.792;2022-07-29T12:17:07;4.40;;;2.70;;
54143;SDS011;40050;47.324;18.792;2022-07-29T12:19:09;4.70;;;2.70;;
54143;SDS011;40050;47.324;18.792;2022-07-29T12:21:16;4.30;;;2.80;;
54143;SDS011;40050;47.324;18.792;2022-07-29T12:23:14;4.70;;;2.80;;
54143;SDS011;40050;47.324;18.792;2022-07-29T12:25:15;5.40;;;3.10;;
54143;SDS011;40050;47.324;18.792;2022-07-29T12:27:23;3.80;;;2.80;;
54143;SDS011;40050;47.324;18.792;2022-07-29T12:29:24;4.40;;;2.60;;
54143;SDS011;40050;47.324;18.792;2022-07-29T12:31:26;5.20;;;2.50;;
54143;SDS011;40050;47.324;18.792;2022-07-29T12:33:27;6.60;;;2.50;;
54143;SDS011;40050;47.324;18.792;2022-07-29T12:35:28;5.60;;;2.50;;
54143;SDS011;40050;47.324;18.792;2022-07-29T12:37:30;3.70;;;2.50;;
54143;SDS011;40050;47.324;18.792;2022-07-29T12:39:30;3.30;;;2.40;;
54143;SDS011;40050;47.324;18.792;2022-07-29T12:41:31;4.10;;;2.20;;
54143;SDS011;40050;47.324;18.792;2022-07-29T12:43:37;4.10;;;2.50;;
54143;SDS011;40050;47.324;18.792;2022-07-29T12:45:38;6.80;;;2.60;;
54143;SDS011;40050;47.324;18.792;2022-07-29T12:47:51;5.40;;;2.70;;
54143;SDS011;40050;47.324;18.792;2022-07-29T12:49:40;3.80;;;2.90;;
54143;SDS011;40050;47.324;18.792;2022-07-29T12:51:42;4.90;;;2.60;;
54143;SDS011;40050;47.324;18.792;2022-07-29T12:54:01;5.60;;;2.60;;
54143;SDS011;40050;47.324;18.792;2022-07-29T12:55:46;3.40;;;2.60;;
54143;SDS011;40050;47.324;18.792;2022-07-29T12:57:46;4.10;;;2.40;;